Time;durP1;ratioP1;P1;durP2;ratioP2;P2;SDS_P1;SDS_P2;PMS_P1;PMS_P2;Temp;Humidity;BMP_temperature;BMP_pressure;BME280_temperature;BME280_humidity;BME280_pressure;Samples;Min_cycle;Max_cycle;Signal;HPM_P1;HPM_P2
2023/08/26 00:00:08;;;;;;;6.38;2.22;;;17.40;99.90;;;;;;5007631;28;36798;-75
2023/08/26 00:02:34;;;;;;;5.50;2.08;;;17.40;99.90;;;;;;5006358;28;36318;-75
2023/08/26 00:05:01;;;;;;;7.47;2.08;;;17.20;99.90;;;;;;5002788;28;37466;-75
2023/08/26 00:07:27;;;;;;;6.97;2.05;;;17.10;99.90;;;;;;5003844;28;38852;-75
2023/08/26 00:09:53;;;;;;;7.72;1.90;;;17.10;99.90;;;;;;5004677;28;37608;-75
2023/08/26 00:12:19;;;;;;;7.30;2.13;;;17.00;99.90;;;;;;5003279;28;37026;-75
2023/08/26 00:14:46;;;;;;;8.02;2.20;;;16.90;99.90;;;;;;5002505;28;39346;-75
2023/08/26 00:17:13;;;;;;;4.80;1.85;;;16.80;99.90;;;;;;5007563;28;37428;-75
2023/08/26 00:19:39;;;;;;;7.05;2.20;;;16.70;99.90;;;;;;5004535;28;36829;-75
2023/08/26 00:22:05;;;;;;;6.10;2.08;;;16.70;99.90;;;;;;5013747;28;36986;-76
2023/08/26 00:24:32;;;;;;;11.48;2.70;;;16.60;99.90;;;;;;5002170;28;38357;-75
2023/08/26 00:26:58;;;;;;;8.07;2.72;;;16.60;99.90;;;;;;5002564;28;39207;-75
2023/08/26 00:29:25;;;;;;;6.60;1.90;;;16.50;99.90;;;;;;5005447;28;37245;-75
2023/08/26 00:31:51;;;;;;;7.10;2.38;;;16.50;99.90;;;;;;5006877;28;38126;-75
2023/08/26 00:34:17;;;;;;;6.25;2.42;;;16.40;99.90;;;;;;5004184;28;38535;-75
2023/08/26 00:36:43;;;;;;;8.43;2.20;;;16.40;99.90;;;;;;5009580;28;37345;-75
2023/08/26 00:39:09;;;;;;;6.28;2.13;;;16.40;99.90;;;;;;5012839;28;39429;-75
2023/08/26 00:41:35;;;;;;;7.95;1.98;;;16.50;99.90;;;;;;5009918;28;38645;-75
2023/08/26 00:44:01;;;;;;;9.27;1.90;;;16.30;99.90;;;;;;5020858;28;38927;-75
2023/08/26 00:46:29;;;;;;;11.60;2.25;;;16.20;99.90;;;;;;5017448;28;50165;-75
2023/08/26 00:48:55;;;;;;;10.70;2.20;;;16.30;99.90;;;;;;5011632;28;37045;-76
2023/08/26 00:51:22;;;;;;;8.02;2.20;;;16.20;99.90;;;;;;5020773;28;37246;-75
2023/08/26 00:53:49;;;;;;;7.43;2.30;;;16.10;99.90;;;;;;5016039;28;39590;-75
2023/08/26 00:56:15;;;;;;;8.88;2.33;;;16.00;99.90;;;;;;5017311;28;37147;-75
2023/08/26 00:58:41;;;;;;;6.68;2.22;;;16.00;99.90;;;;;;5013969;28;38112;-75
2023/08/26 01:03:43;;;;;;;9.90;2.30;;;15.90;99.90;;;;;;5055576;22;20042;-76
2023/08/26 01:06:09;;;;;;;10.55;2.70;;;15.90;99.90;;;;;;5020802;28;37134;-76
2023/08/26 01:08:36;;;;;;;11.23;2.63;;;15.90;99.90;;;;;;5021199;28;38414;-76
2023/08/26 01:11:32;;;;;;;7.60;2.35;;;15.80;99.90;;;;;;5028063;28;37236;-76
2023/08/26 01:14:26;;;;;;;5.47;2.20;;;15.80;99.90;;;;;;5022843;28;37805;-76
2023/08/26 01:16:52;;;;;;;11.27;2.63;;;15.80;99.90;;;;;;5041782;28;47379;-76
2023/08/26 01:19:29;;;;;;;12.40;3.25;;;15.80;99.90;;;;;;5025844;28;37220;-76
2023/08/26 01:22:00;;;;;;;17.48;3.75;;;15.70;99.90;;;;;;5031713;28;36098;-76
2023/08/26 01:24:26;;;;;;;10.20;3.33;;;15.70;99.90;;;;;;5022764;28;41289;-76
2023/08/26 01:26:52;;;;;;;8.32;3.45;;;15.70;99.90;;;;;;5018559;28;37300;-76
2023/08/26 01:29:19;;;;;;;10.88;3.25;;;15.70;99.90;;;;;;5019618;28;38641;-75
2023/08/26 01:31:52;;;;;;;6.90;3.40;;;15.70;99.90;;;;;;5018153;28;37404;-76
2023/08/26 01:34:27;;;;;;;11.73;4.35;;;15.70;99.90;;;;;;5016842;28;38433;-76
2023/08/26 01:36:57;;;;;;;11.93;3.25;;;15.70;99.90;;;;;;5023059;28;39005;-75
2023/08/26 01:39:24;;;;;;;13.15;3.95;;;15.70;99.90;;;;;;5034211;28;36510;-75
2023/08/26 01:41:50;;;;;;;14.50;3.58;;;15.60;99.90;;;;;;5019601;28;35840;-76
2023/08/26 01:44:18;;;;;;;7.28;3.10;;;15.70;99.90;;;;;;5019520;28;41246;-76
2023/08/26 01:46:45;;;;;;;15.93;3.58;;;15.80;99.90;;;;;;5018071;28;39156;-76
2023/08/26 01:49:11;;;;;;;11.48;3.03;;;15.80;99.90;;;;;;5019654;28;36867;-76
2023/08/26 01:51:38;;;;;;;8.68;3.33;;;15.80;99.90;;;;;;5019834;28;36919;-76
2023/08/26 01:54:07;;;;;;;9.10;3.42;;;15.80;99.90;;;;;;5035732;28;38258;-76
2023/08/26 01:56:34;;;;;;;7.45;3.08;;;15.80;99.90;;;;;;5035605;28;38875;-76
2023/08/26 01:59:00;;;;;;;7.00;2.80;;;15.80;99.90;;;;;;5028109;28;36629;-76
2023/08/26 02:01:26;;;;;;;5.75;3.03;;;15.80;99.90;;;;;;5030284;28;37562;-75
2023/08/26 02:03:52;;;;;;;7.80;3.08;;;15.70;99.90;;;;;;5015374;28;37983;-76
2023/08/26 02:06:18;;;;;;;10.98;2.95;;;15.70;99.90;;;;;;5020522;28;38796;-75
2023/08/26 02:08:45;;;;;;;7.20;3.42;;;15.70;99.90;;;;;;5021233;28;38338;-76
2023/08/26 02:11:12;;;;;;;9.35;3.10;;;15.60;99.90;;;;;;5020263;28;37994;-75
2023/08/26 02:13:38;;;;;;;10.52;3.28;;;15.60;99.90;;;;;;5019669;28;38399;-77
2023/08/26 02:16:04;;;;;;;9.15;2.97;;;15.60;99.90;;;;;;5017878;28;38555;-76
2023/08/26 02:18:30;;;;;;;7.30;2.80;;;15.50;99.90;;;;;;5020973;28;38011;-76
2023/08/26 02:20:56;;;;;;;8.32;2.95;;;15.50;99.90;;;;;;5016773;28;36023;-76
2023/08/26 02:23:22;;;;;;;11.02;3.25;;;15.50;99.90;;;;;;5020713;28;38632;-76
2023/08/26 02:25:48;;;;;;;6.82;2.60;;;15.50;99.90;;;;;;5017068;28;38462;-76
2023/08/26 02:28:14;;;;;;;9.05;3.33;;;15.40;99.90;;;;;;5018470;28;37180;-76
2023/08/26 02:30:41;;;;;;;11.90;3.35;;;15.40;99.90;;;;;;5018682;28;39166;-76
2023/08/26 02:33:08;;;;;;;6.55;2.92;;;15.40;99.90;;;;;;5019694;28;41035;-77
2023/08/26 02:35:35;;;;;;;15.13;3.60;;;15.40;99.90;;;;;;5020967;28;38457;-76
2023/08/26 02:38:01;;;;;;;5.30;3.28;;;15.40;99.90;;;;;;5021548;28;39829;-76
2023/08/26 02:40:27;;;;;;;8.18;3.83;;;15.40;99.90;;;;;;5016980;28;48469;-76
2023/08/26 02:42:54;;;;;;;7.13;3.03;;;15.40;99.90;;;;;;5020497;28;37636;-76
2023/08/26 02:45:20;;;;;;;11.57;3.30;;;15.30;99.90;;;;;;5017432;28;36989;-76
2023/08/26 02:47:46;;;;;;;8.85;4.07;;;15.30;99.90;;;;;;5039148;28;39658;-76
2023/08/26 02:50:12;;;;;;;8.20;3.65;;;15.30;99.90;;;;;;5020608;28;36363;-76
2023/08/26 02:52:38;;;;;;;10.38;3.40;;;15.30;99.90;;;;;;5027276;28;37925;-76
2023/08/26 02:55:04;;;;;;;6.20;3.45;;;15.30;99.90;;;;;;5032290;28;39051;-76
2023/08/26 02:57:30;;;;;;;8.32;2.60;;;15.30;99.90;;;;;;5015797;28;38428;-77
2023/08/26 02:59:56;;;;;;;10.88;3.80;;;15.20;99.90;;;;;;5016870;28;37337;-77
2023/08/26 03:02:24;;;;;;;8.43;3.45;;;15.30;99.90;;;;;;5018369;28;37992;-76
2023/08/26 03:04:51;;;;;;;11.20;3.28;;;15.20;99.90;;;;;;5016619;28;37161;-77
2023/08/26 03:07:17;;;;;;;8.80;3.28;;;15.20;99.90;;;;;;5018995;28;37423;-76
2023/08/26 03:09:43;;;;;;;11.93;4.28;;;15.30;99.90;;;;;;5019875;28;35526;-78
2023/08/26 03:12:10;;;;;;;8.43;3.45;;;15.30;99.90;;;;;;5032280;28;38533;-76
2023/08/26 03:14:36;;;;;;;11.60;3.55;;;15.30;99.90;;;;;;5019605;28;37913;-76
2023/08/26 03:17:03;;;;;;;9.85;3.70;;;15.20;99.90;;;;;;5024830;28;38831;-76
2023/08/26 03:19:29;;;;;;;5.07;3.33;;;15.10;99.90;;;;;;5014702;28;36076;-76
2023/08/26 03:21:55;;;;;;;11.52;3.67;;;15.00;99.90;;;;;;5016512;28;38593;-75
2023/08/26 03:24:22;;;;;;;9.88;3.22;;;15.00;99.90;;;;;;5015393;28;39056;-76
2023/08/26 03:26:48;;;;;;;10.02;3.40;;;15.10;99.90;;;;;;5018905;28;38437;-77
2023/08/26 03:29:14;;;;;;;11.02;3.72;;;15.00;99.90;;;;;;5016346;28;36765;-76
2023/08/26 03:31:42;;;;;;;6.60;3.42;;;15.00;99.90;;;;;;5018574;28;39537;-76
2023/08/26 03:34:09;;;;;;;9.63;3.30;;;15.00;99.90;;;;;;5017453;28;36728;-76
2023/08/26 03:36:35;;;;;;;9.85;3.72;;;15.00;99.90;;;;;;5018152;28;37327;-76
2023/08/26 03:39:01;;;;;;;7.70;3.22;;;15.00;99.90;;;;;;5016346;28;36411;-76
2023/08/26 03:41:27;;;;;;;10.02;3.72;;;14.90;99.90;;;;;;5016824;28;47410;-77
2023/08/26 03:43:53;;;;;;;13.30;3.90;;;14.90;99.90;;;;;;5015982;28;37129;-75
2023/08/26 03:46:19;;;;;;;8.18;3.17;;;14.90;99.90;;;;;;5014074;28;38917;-76
2023/08/26 03:48:45;;;;;;;8.18;3.70;;;14.80;99.90;;;;;;5014105;28;36026;-76
2023/08/26 03:51:12;;;;;;;4.72;2.85;;;14.80;99.90;;;;;;5017668;28;37627;-76
2023/08/26 03:53:38;;;;;;;7.68;3.55;;;14.80;99.90;;;;;;5015084;28;38227;-75
2023/08/26 03:56:04;;;;;;;8.15;3.55;;;14.70;99.90;;;;;;5024197;28;36714;-75
2023/08/26 03:58:30;;;;;;;9.25;3.05;;;14.70;99.90;;;;;;5021670;28;35958;-75
2023/08/26 04:01:06;;;;;;;12.80;4.13;;;14.70;99.90;;;;;;5027545;28;38393;-75
2023/08/26 04:03:33;;;;;;;10.50;3.55;;;14.70;99.90;;;;;;5030965;28;48496;-76
2023/08/26 04:06:00;;;;;;;7.25;3.20;;;14.70;99.90;;;;;;5027223;28;37215;-76
2023/08/26 04:08:27;;;;;;;10.13;3.97;;;14.80;99.90;;;;;;5040962;28;37960;-75
2023/08/26 04:10:58;;;;;;;12.13;3.92;;;14.80;99.90;;;;;;5043004;28;37634;-75
2023/08/26 04:13:26;;;;;;;9.98;3.60;;;14.80;99.90;;;;;;5026494;28;39138;-74
2023/08/26 04:15:54;;;;;;;10.68;3.67;;;14.80;99.90;;;;;;5044627;28;37370;-75
2023/08/26 04:18:21;;;;;;;5.95;3.35;;;14.80;99.90;;;;;;5017764;28;36185;-75
2023/08/26 04:20:47;;;;;;;8.27;3.83;;;14.70;99.90;;;;;;5017575;28;37760;-75
2023/08/26 04:23:13;;;;;;;11.40;3.80;;;14.80;99.90;;;;;;5027377;28;37305;-75
2023/08/26 04:25:41;;;;;;;10.00;3.78;;;14.70;99.90;;;;;;5034951;28;37710;-75
2023/08/26 04:28:07;;;;;;;10.43;4.05;;;14.70;99.90;;;;;;5019955;28;36060;-75
2023/08/26 04:30:34;;;;;;;7.65;3.50;;;14.70;99.90;;;;;;5019301;28;38824;-76
2023/08/26 04:33:06;;;;;;;7.75;3.13;;;14.70;99.90;;;;;;5015344;28;38586;-75
2023/08/26 04:35:34;;;;;;;6.70;3.28;;;14.70;99.90;;;;;;5014150;28;48905;-75
2023/08/26 04:38:00;;;;;;;8.23;3.70;;;14.70;99.90;;;;;;5024744;28;38509;-75
2023/08/26 04:40:26;;;;;;;11.15;3.38;;;14.70;99.90;;;;;;5015885;28;38406;-75
2023/08/26 04:42:55;;;;;;;11.52;3.78;;;14.70;99.90;;;;;;5018277;28;38572;-75
2023/08/26 04:45:22;;;;;;;10.98;4.53;;;14.70;99.90;;;;;;5014673;28;36021;-75
2023/08/26 04:47:49;;;;;;;7.57;3.45;;;14.70;99.90;;;;;;5015731;28;36774;-75
2023/08/26 04:50:15;;;;;;;13.02;3.90;;;14.60;99.90;;;;;;5016959;28;38401;-75
2023/08/26 04:52:42;;;;;;;10.27;3.00;;;14.70;99.90;;;;;;5021010;28;38164;-75
2023/08/26 04:55:09;;;;;;;9.63;3.45;;;14.70;99.90;;;;;;5019175;28;37560;-75
2023/08/26 04:57:36;;;;;;;5.63;3.10;;;14.70;99.90;;;;;;5022424;28;38204;-75
2023/08/26 05:00:09;;;;;;;9.40;3.22;;;14.70;99.90;;;;;;5021477;28;38708;-76
2023/08/26 05:02:36;;;;;;;8.55;3.20;;;14.70;99.90;;;;;;5018921;28;38119;-76
2023/08/26 05:05:02;;;;;;;8.95;3.22;;;14.70;99.90;;;;;;5019785;28;37271;-75
2023/08/26 05:07:28;;;;;;;10.73;3.65;;;14.70;99.90;;;;;;5019075;28;36381;-74
2023/08/26 05:09:54;;;;;;;12.52;3.55;;;14.70;99.90;;;;;;5020107;28;39280;-74
2023/08/26 05:12:21;;;;;;;8.90;3.25;;;14.80;99.90;;;;;;5018051;28;36759;-74
2023/08/26 05:14:47;;;;;;;7.63;2.78;;;14.70;99.90;;;;;;5018726;28;38337;-74
2023/08/26 05:17:13;;;;;;;5.50;3.15;;;14.80;99.90;;;;;;5021727;28;35982;-75
2023/08/26 05:19:39;;;;;;;11.43;3.65;;;14.80;99.90;;;;;;5020727;28;38690;-75
2023/08/26 05:22:06;;;;;;;6.20;3.13;;;14.80;99.90;;;;;;5014120;28;38986;-75
2023/08/26 05:24:32;;;;;;;8.02;3.25;;;14.90;99.90;;;;;;5018417;28;38031;-75
2023/08/26 05:26:58;;;;;;;10.25;4.00;;;14.90;99.90;;;;;;5020406;28;37576;-76
2023/08/26 05:29:24;;;;;;;12.75;3.80;;;15.00;99.90;;;;;;5019351;28;38349;-75
2023/08/26 05:31:50;;;;;;;7.30;4.25;;;15.00;99.90;;;;;;5026323;28;38029;-76
2023/08/26 05:34:16;;;;;;;9.55;4.10;;;15.00;99.90;;;;;;5020964;28;38007;-76
2023/08/26 05:36:42;;;;;;;5.68;3.90;;;15.00;99.90;;;;;;5018758;28;37392;-76
2023/08/26 05:39:08;;;;;;;10.38;4.40;;;15.00;99.90;;;;;;5019577;28;40817;-76
2023/08/26 05:41:34;;;;;;;9.45;3.80;;;15.10;99.90;;;;;;5018806;28;39109;-76
2023/08/26 05:44:00;;;;;;;10.75;4.03;;;15.10;99.90;;;;;;5024176;28;36399;-76
2023/08/26 05:46:27;;;;;;;10.43;3.60;;;15.10;99.90;;;;;;5025069;28;37100;-75
2023/08/26 05:48:53;;;;;;;8.65;3.78;;;15.20;99.90;;;;;;5025381;28;38509;-75
2023/08/26 05:51:19;;;;;;;11.75;3.95;;;15.20;99.90;;;;;;5021214;28;38749;-76
2023/08/26 05:53:45;;;;;;;10.35;3.20;;;15.20;99.90;;;;;;5015827;28;36599;-76
2023/08/26 05:56:11;;;;;;;8.98;3.17;;;15.20;99.90;;;;;;5022519;28;35613;-76
2023/08/26 05:58:37;;;;;;;6.70;3.10;;;15.20;99.90;;;;;;5030788;28;37331;-75
2023/08/26 06:01:03;;;;;;;5.03;2.95;;;15.20;99.90;;;;;;5025855;28;38337;-75
2023/08/26 06:03:30;;;;;;;8.50;3.15;;;15.30;99.90;;;;;;5025889;28;36453;-77
2023/08/26 06:05:56;;;;;;;11.43;3.55;;;15.40;99.90;;;;;;5021838;28;36697;-74
2023/08/26 06:08:22;;;;;;;8.13;2.83;;;15.40;99.90;;;;;;5017294;28;37959;-74
2023/08/26 06:10:55;;;;;;;9.35;2.83;;;15.50;99.90;;;;;;5020337;28;38033;-74
2023/08/26 06:13:22;;;;;;;9.95;3.35;;;15.50;99.90;;;;;;5011249;28;38398;-74
2023/08/26 06:15:55;;;;;;;9.57;3.22;;;15.60;99.90;;;;;;5020857;28;36165;-74
2023/08/26 06:18:22;;;;;;;6.65;2.95;;;15.70;99.90;;;;;;5009952;28;38489;-75
2023/08/26 06:20:50;;;;;;;6.60;3.22;;;15.80;99.90;;;;;;5014204;28;40860;-76
2023/08/26 06:23:17;;;;;;;5.78;2.55;;;16.00;99.90;;;;;;5014479;28;37370;-77
2023/08/26 06:26:01;;;;;;;8.48;2.67;;;16.20;99.90;;;;;;5009951;28;37983;-77
2023/08/26 06:28:27;;;;;;;8.98;3.13;;;16.20;99.90;;;;;;5007289;28;38257;-77
2023/08/26 06:30:58;;;;;;;5.53;2.50;;;16.40;99.90;;;;;;5017363;28;38006;-76
2023/08/26 06:33:24;;;;;;;7.55;3.00;;;16.40;99.90;;;;;;5019766;28;38176;-75
2023/08/26 06:35:50;;;;;;;7.80;2.63;;;16.40;99.90;;;;;;5013641;28;36036;-75
2023/08/26 06:38:16;;;;;;;6.30;2.35;;;16.40;99.90;;;;;;5017104;28;38418;-75
2023/08/26 06:40:42;;;;;;;11.88;2.58;;;16.30;99.90;;;;;;5020538;28;38945;-76
2023/08/26 06:43:09;;;;;;;5.72;2.25;;;16.40;99.90;;;;;;5022317;28;36376;-76
2023/08/26 06:45:35;;;;;;;4.60;2.28;;;16.30;99.90;;;;;;5018568;28;36022;-78
2023/08/26 06:48:01;;;;;;;5.35;1.80;;;16.30;99.90;;;;;;5006366;28;38741;-75
2023/08/26 06:50:28;;;;;;;4.03;2.25;;;16.30;99.90;;;;;;5015291;28;46833;-78
2023/08/26 06:52:55;;;;;;;3.40;1.70;;;16.20;99.90;;;;;;5026279;28;36541;-77
2023/08/26 06:55:21;;;;;;;5.20;2.03;;;16.30;99.90;;;;;;5016922;28;36089;-77
2023/08/26 06:57:47;;;;;;;4.53;1.70;;;16.20;99.90;;;;;;5012734;28;39428;-77
2023/08/26 07:00:13;;;;;;;2.63;1.75;;;16.30;99.90;;;;;;5018612;28;38376;-78
2023/08/26 07:02:39;;;;;;;8.68;2.60;;;16.40;99.90;;;;;;5021839;28;36747;-76
2023/08/26 07:05:06;;;;;;;4.72;1.40;;;16.40;99.90;;;;;;5023327;28;37573;-76
2023/08/26 07:07:32;;;;;;;4.25;1.95;;;16.40;99.90;;;;;;5024230;28;38190;-77
2023/08/26 07:09:58;;;;;;;4.75;1.65;;;16.50;99.90;;;;;;5022674;28;38151;-76
2023/08/26 07:12:24;;;;;;;5.28;1.65;;;16.50;99.90;;;;;;5020550;28;36534;-73
2023/08/26 07:14:50;;;;;;;3.92;1.48;;;16.60;99.90;;;;;;5019545;28;36482;-75
2023/08/26 07:17:17;;;;;;;4.90;1.80;;;16.70;99.90;;;;;;5012025;28;38334;-76
2023/08/26 07:19:44;;;;;;;6.95;1.75;;;16.70;99.90;;;;;;5014739;28;38115;-76
2023/08/26 07:22:10;;;;;;;3.35;1.73;;;16.70;99.90;;;;;;5013948;28;38721;-75
2023/08/26 07:24:37;;;;;;;2.40;1.60;;;16.80;99.90;;;;;;5015889;28;36443;-75
2023/08/26 07:27:03;;;;;;;4.25;2.22;;;17.00;99.90;;;;;;5016302;28;40379;-75
2023/08/26 07:29:37;;;;;;;5.97;2.72;;;17.10;99.90;;;;;;5025514;28;37145;-76
2023/08/26 07:32:04;;;;;;;5.40;2.50;;;17.20;99.90;;;;;;5018935;28;36986;-76
2023/08/26 07:34:31;;;;;;;8.52;3.33;;;17.20;99.90;;;;;;5023496;28;37474;-75
2023/08/26 07:36:58;;;;;;;2.88;2.50;;;17.20;99.90;;;;;;5030439;28;39382;-76
2023/08/26 07:39:24;;;;;;;5.47;3.67;;;17.10;99.90;;;;;;5030802;28;37424;-75
2023/08/26 07:41:51;;;;;;;4.40;2.67;;;17.20;99.90;;;;;;5032164;28;36702;-75
2023/08/26 07:44:17;;;;;;;5.97;3.20;;;17.30;99.90;;;;;;5031316;28;37024;-75
2023/08/26 07:46:43;;;;;;;5.68;3.22;;;17.30;99.90;;;;;;5028307;28;37588;-75
2023/08/26 07:49:09;;;;;;;4.05;2.90;;;17.40;99.90;;;;;;5020589;28;38901;-75
2023/08/26 07:51:35;;;;;;;4.75;2.90;;;17.60;99.90;;;;;;5027424;28;36588;-75
2023/08/26 07:54:01;;;;;;;5.07;2.72;;;17.80;99.90;;;;;;5023688;28;37384;-74
2023/08/26 07:56:27;;;;;;;3.95;2.17;;;18.10;99.90;;;;;;5013261;28;46908;-73
2023/08/26 07:58:53;;;;;;;3.67;1.92;;;18.30;99.90;;;;;;5017524;28;39320;-74
2023/08/26 08:01:19;;;;;;;3.72;2.25;;;18.30;99.90;;;;;;5016412;28;37454;-73
2023/08/26 08:03:45;;;;;;;4.40;1.58;;;18.20;99.90;;;;;;5018395;28;36339;-73
2023/08/26 08:06:12;;;;;;;4.35;1.60;;;18.10;99.90;;;;;;5014117;28;38972;-73
2023/08/26 08:08:38;;;;;;;3.15;1.50;;;18.00;99.90;;;;;;5010857;28;37577;-74
2023/08/26 08:11:04;;;;;;;1.60;1.30;;;18.00;99.90;;;;;;5013244;28;36772;-74
2023/08/26 08:13:30;;;;;;;2.47;1.50;;;17.90;99.90;;;;;;5016606;28;34375;-73
2023/08/26 08:15:56;;;;;;;4.10;1.40;;;18.00;99.90;;;;;;5025518;28;37692;-73
2023/08/26 08:18:22;;;;;;;4.57;1.48;;;17.90;99.90;;;;;;5022526;28;37542;-72
2023/08/26 08:20:48;;;;;;;3.83;1.67;;;18.10;99.90;;;;;;5021612;28;37944;-73
2023/08/26 08:23:15;;;;;;;3.38;1.63;;;18.60;99.90;;;;;;5020140;28;37941;-74
2023/08/26 08:25:41;;;;;;;2.42;1.88;;;18.60;99.90;;;;;;5015244;28;38956;-73
2023/08/26 08:28:07;;;;;;;5.10;1.77;;;18.30;99.90;;;;;;5018559;28;37931;-72
2023/08/26 08:30:33;;;;;;;6.10;1.95;;;18.10;99.90;;;;;;5021705;28;38835;-72
2023/08/26 08:32:59;;;;;;;2.38;2.15;;;17.90;99.90;;;;;;5025611;28;36702;-72
2023/08/26 08:35:26;;;;;;;5.32;2.47;;;18.00;99.90;;;;;;5032089;28;38493;-72
2023/08/26 08:37:52;;;;;;;7.10;2.20;;;17.90;99.90;;;;;;5024588;28;36920;-72
2023/08/26 08:40:18;;;;;;;3.97;2.13;;;17.90;99.90;;;;;;5022526;28;38162;-73
2023/08/26 08:42:47;;;;;;;4.20;2.60;;;17.90;99.90;;;;;;5032576;28;37014;-73
2023/08/26 08:45:13;;;;;;;8.18;2.60;;;17.80;99.90;;;;;;5022472;28;37225;-73
2023/08/26 08:47:40;;;;;;;4.55;2.10;;;17.80;99.90;;;;;;5020053;28;38063;-73
2023/08/26 08:50:08;;;;;;;5.25;2.25;;;17.80;99.90;;;;;;5036589;28;39143;-73
2023/08/26 08:52:34;;;;;;;4.82;2.00;;;17.90;99.90;;;;;;5023817;28;36632;-73
2023/08/26 08:55:00;;;;;;;3.30;1.92;;;17.90;99.90;;;;;;5022015;28;38670;-73
2023/08/26 08:57:32;;;;;;;4.03;1.83;;;18.00;99.90;;;;;;5018083;28;37196;-73
2023/08/26 08:59:59;;;;;;;2.60;1.70;;;18.30;99.90;;;;;;5007071;28;37521;-73
2023/08/26 09:02:27;;;;;;;3.00;1.55;;;18.50;99.90;;;;;;5017077;28;37415;-73
2023/08/26 09:04:54;;;;;;;4.22;2.13;;;18.60;99.90;;;;;;5019356;28;37972;-70
2023/08/26 09:07:22;;;;;;;2.70;1.42;;;18.70;99.90;;;;;;5019177;28;38992;-68
2023/08/26 09:09:51;;;;;;;5.53;1.70;;;18.90;99.90;;;;;;5037139;28;37038;-71
2023/08/26 09:12:17;;;;;;;3.05;1.50;;;19.20;99.90;;;;;;5027156;28;36320;-72
2023/08/26 09:14:44;;;;;;;3.35;1.52;;;19.50;99.90;;;;;;5023709;28;37843;-72
2023/08/26 09:17:19;;;;;;;4.28;1.98;;;19.50;99.90;;;;;;5021507;28;38484;-72
2023/08/26 09:19:53;;;;;;;3.95;1.75;;;19.50;99.90;;;;;;5023413;28;37456;-72
2023/08/26 09:22:23;;;;;;;5.07;1.67;;;19.60;99.90;;;;;;5020986;28;37821;-72
2023/08/26 09:24:55;;;;;;;3.72;1.50;;;19.70;99.90;;;;;;5019355;28;39017;-72
2023/08/26 09:27:22;;;;;;;2.88;1.40;;;19.50;99.90;;;;;;5021275;28;38427;-71
2023/08/26 09:29:48;;;;;;;9.23;2.30;;;19.30;99.90;;;;;;5022401;28;36965;-72
2023/08/26 09:32:14;;;;;;;4.82;1.70;;;19.30;99.90;;;;;;5032670;28;37043;-72
2023/08/26 09:34:44;;;;;;;4.47;1.77;;;19.20;99.90;;;;;;5025727;28;38649;-73
2023/08/26 09:37:12;;;;;;;5.35;1.70;;;19.00;99.90;;;;;;5031616;28;38253;-72
2023/08/26 09:39:46;;;;;;;3.10;1.70;;;18.70;99.90;;;;;;5015545;28;37826;-72
2023/08/26 09:42:20;;;;;;;4.75;2.08;;;18.50;99.90;;;;;;5035805;28;37215;-74
2023/08/26 09:44:47;;;;;;;4.47;2.17;;;18.40;99.90;;;;;;5023446;28;38130;-75
2023/08/26 09:47:13;;;;;;;6.05;1.77;;;18.40;99.90;;;;;;5022283;28;39347;-73
2023/08/26 09:49:48;;;;;;;5.68;1.63;;;18.60;99.90;;;;;;5026902;28;37961;-74
2023/08/26 09:52:15;;;;;;;4.60;2.50;;;18.70;99.90;;;;;;5010702;28;37174;-73
2023/08/26 09:54:44;;;;;;;3.00;2.10;;;18.80;99.90;;;;;;5034103;28;38884;-73
2023/08/26 09:57:11;;;;;;;3.08;2.30;;;18.80;99.90;;;;;;5017228;28;37819;-73
2023/08/26 09:59:43;;;;;;;6.05;2.15;;;18.70;99.90;;;;;;5019697;28;37914;-73
2023/08/26 10:02:22;;;;;;;4.93;1.80;;;18.50;99.90;;;;;;5023874;28;36136;-73
2023/08/26 10:04:56;;;;;;;6.70;1.70;;;18.70;99.90;;;;;;5019593;28;40928;-73
2023/08/26 10:07:23;;;;;;;3.72;1.60;;;19.00;99.90;;;;;;4999025;28;38099;-74
2023/08/26 10:10:24;;;;;;;2.80;1.25;;;19.50;99.90;;;;;;5014686;28;36294;-73
2023/08/26 10:12:58;;;;;;;4.47;1.25;;;20.20;99.90;;;;;;5020980;28;48912;-73
2023/08/26 10:15:28;;;;;;;2.15;0.70;;;20.90;99.30;;;;;;5014657;28;39536;-73
2023/08/26 10:17:59;;;;;;;4.65;1.00;;;21.30;60.60;;;;;;5017101;28;38938;-74
2023/08/26 10:20:30;;;;;;;1.80;0.80;;;21.20;46.80;;;;;;5024108;28;38753;-74
2023/08/26 10:22:59;;;;;;;1.52;0.50;;;20.90;47.40;;;;;;5024035;28;36811;-74
2023/08/26 10:25:27;;;;;;;3.70;0.70;;;20.70;73.10;;;;;;5009638;28;37779;-73
2023/08/26 10:27:54;;;;;;;4.63;1.05;;;20.70;84.90;;;;;;5015932;28;38339;-74
2023/08/26 10:30:21;;;;;;;3.08;0.77;;;20.80;81.20;;;;;;5019498;28;40105;-73
2023/08/26 10:32:47;;;;;;;4.57;1.05;;;20.70;68.70;;;;;;5031445;28;36938;-73
2023/08/26 10:35:14;;;;;;;2.65;0.70;;;20.70;75.10;;;;;;5019380;28;38737;-73
2023/08/26 10:37:40;;;;;;;2.40;0.70;;;20.80;55.70;;;;;;5016801;28;37655;-73
2023/08/26 10:40:13;;;;;;;3.38;0.57;;;20.60;56.80;;;;;;4996223;28;36804;-73
2023/08/26 10:43:04;;;;;;;1.45;0.50;;;20.40;72.30;;;;;;5016189;28;36937;-75
2023/08/26 10:45:30;;;;;;;2.03;0.80;;;20.70;86.60;;;;;;4980025;28;47202;-72
2023/08/26 10:48:02;;;;;;;3.28;0.55;;;21.20;50.00;;;;;;5023085;28;36896;-72
2023/08/26 10:50:28;;;;;;;0.80;0.70;;;21.40;36.40;;;;;;5022125;28;48695;-74
2023/08/26 10:52:59;;;;;;;3.83;0.60;;;21.00;42.60;;;;;;5026531;28;36803;-73
2023/08/26 10:55:50;;;;;;;5.45;0.77;;;20.80;56.80;;;;;;4986299;28;37984;-73
2023/08/26 10:58:21;;;;;;;1.35;0.50;;;20.50;67.20;;;;;;4998252;28;36279;-72
2023/08/26 11:00:49;;;;;;;2.63;0.50;;;20.30;60.70;;;;;;5020357;28;37422;-83
2023/08/26 11:03:22;;;;;;;2.28;0.60;;;20.40;57.90;;;;;;5021776;28;36205;-72
2023/08/26 11:06:10;;;;;;;1.27;0.73;;;20.50;57.70;;;;;;5013589;28;39290;-72
2023/08/26 11:08:40;;;;;;;3.35;0.68;;;20.50;81.60;;;;;;5013668;28;47333;-71
2023/08/26 11:11:12;;;;;;;1.60;0.35;;;20.40;79.80;;;;;;5014878;28;37512;-70
2023/08/26 11:13:40;;;;;;;2.63;0.80;;;20.30;90.00;;;;;;5012890;28;37124;-72
2023/08/26 11:16:07;;;;;;;1.35;0.52;;;20.20;87.90;;;;;;5009910;28;38875;-71
2023/08/26 11:18:33;;;;;;;2.20;0.50;;;20.20;70.50;;;;;;5027861;28;37195;-72
2023/08/26 11:21:04;;;;;;;2.15;0.85;;;20.20;62.00;;;;;;5016233;28;38062;-72
2023/08/26 11:23:31;;;;;;;2.75;0.70;;;20.10;61.40;;;;;;5028061;28;47099;-72
2023/08/26 11:25:57;;;;;;;0.85;0.70;;;20.00;79.10;;;;;;5032857;28;38394;-72
2023/08/26 11:28:28;;;;;;;2.90;0.77;;;19.90;73.60;;;;;;5025941;28;38432;-72
2023/08/26 11:30:54;;;;;;;2.10;0.60;;;19.90;86.20;;;;;;5027190;28;38348;-72
2023/08/26 11:33:21;;;;;;;0.90;0.65;;;19.80;72.60;;;;;;5027652;28;37040;-72
2023/08/26 11:35:49;;;;;;;0.80;0.57;;;19.70;75.30;;;;;;5023008;28;37499;-72
2023/08/26 11:38:16;;;;;;;1.63;0.70;;;19.60;78.30;;;;;;5020824;28;37516;-72
2023/08/26 11:40:42;;;;;;;1.52;0.65;;;19.40;91.00;;;;;;5014363;28;37815;-72
2023/08/26 11:43:10;;;;;;;2.25;0.50;;;19.40;85.90;;;;;;5012333;28;37331;-70
2023/08/26 11:45:38;;;;;;;2.85;0.50;;;19.30;95.70;;;;;;5017185;28;39453;-71
2023/08/26 11:48:05;;;;;;;1.67;0.50;;;19.30;98.60;;;;;;5010576;28;38402;-71
2023/08/26 11:50:34;;;;;;;0.73;0.57;;;19.40;94.70;;;;;;5022468;28;37621;-71
2023/08/26 11:53:04;;;;;;;3.20;0.60;;;19.50;88.40;;;;;;5015976;28;37384;-74
2023/08/26 11:55:35;;;;;;;2.42;0.47;;;19.70;99.90;;;;;;5013392;28;46816;-74
2023/08/26 11:58:02;;;;;;;1.45;0.43;;;20.30;93.70;;;;;;5006581;28;38005;-73
2023/08/26 12:00:29;;;;;;;1.80;0.50;;;21.00;68.20;;;;;;5015310;28;47217;-75
2023/08/26 12:03:06;;;;;;;1.20;0.40;;;21.70;39.20;;;;;;5011876;28;35838;-75
2023/08/26 12:05:46;;;;;;;0.73;0.45;;;22.20;30.50;;;;;;5026982;28;47589;-76
2023/08/26 12:08:16;;;;;;;0.52;0.50;;;22.50;3.40;;;;;;5020581;28;20049;-77
2023/08/26 12:10:49;;;;;;;1.08;0.32;;;22.50;4.40;;;;;;5017658;28;37691;-75
2023/08/26 12:13:16;;;;;;;2.58;0.47;;;22.20;1.00;;;;;;5018974;28;36047;-75
2023/08/26 12:15:43;;;;;;;1.65;0.40;;;21.80;1.00;;;;;;5017677;28;39379;-75
2023/08/26 12:18:09;;;;;;;0.77;0.38;;;21.70;6.90;;;;;;5015582;28;37370;-76
2023/08/26 12:20:37;;;;;;;1.63;0.60;;;21.20;16.70;;;;;;5015744;28;36758;-75
2023/08/26 12:23:05;;;;;;;0.77;0.30;;;21.00;22.70;;;;;;5034302;28;36392;-75
2023/08/26 12:25:36;;;;;;;2.22;0.47;;;21.10;31.20;;;;;;5015330;28;39708;-73
2023/08/26 12:28:10;;;;;;;1.88;0.50;;;21.10;31.80;;;;;;5015984;28;37479;-75
2023/08/26 12:30:37;;;;;;;6.10;0.63;;;21.00;23.90;;;;;;5017543;28;36783;-74
2023/08/26 12:33:07;;;;;;;2.05;0.60;;;20.70;42.50;;;;;;5017319;28;36889;-72
2023/08/26 12:35:37;;;;;;;2.55;0.77;;;20.40;59.40;;;;;;5019442;28;38824;-73
2023/08/26 12:38:04;;;;;;;1.73;0.50;;;20.20;42.70;;;;;;5019664;28;37244;-73
2023/08/26 12:40:35;;;;;;;3.53;0.60;;;20.10;48.50;;;;;;5022678;28;37284;-73
2023/08/26 12:43:06;;;;;;;1.75;0.70;;;20.10;65.90;;;;;;5017447;28;37254;-73
2023/08/26 12:45:33;;;;;;;5.60;1.40;;;20.20;67.90;;;;;;5027784;28;47491;-73
2023/08/26 12:48:01;;;;;;;1.40;0.60;;;20.70;61.50;;;;;;5018376;28;37978;-74
2023/08/26 12:50:27;;;;;;;1.25;0.73;;;21.20;51.50;;;;;;5026899;28;47222;-74